sensor_id;sensor_type;location;lat;lon;timestamp;temperature;humidity
77100;SHT31;66602;48.922;2.414;2023-06-04T08:02:59;33.04;23.93
77100;SHT31;66602;48.922;2.414;2023-06-04T08:05:25;33.02;25.28
77100;SHT31;66602;48.922;2.414;2023-06-04T08:07:51;33.19;24.49
77100;SHT31;66602;48.922;2.414;2023-06-04T08:10:16;32.74;24.40
77100;SHT31;66602;48.922;2.414;2023-06-04T08:12:42;32.38;26.45
77100;SHT31;66602;48.922;2.414;2023-06-04T08:15:08;32.98;25.21
77100;SHT31;66602;48.922;2.414;2023-06-04T08:17:34;33.46;24.85
77100;SHT31;66602;48.922;2.414;2023-06-04T08:19:59;34.05;24.31
77100;SHT31;66602;48.922;2.414;2023-06-04T08:22:25;34.72;25.11
77100;SHT31;66602;48.922;2.414;2023-06-04T08:24:50;34.91;23.26
77100;SHT31;66602;48.922;2.414;2023-06-04T08:27:16;34.86;22.21
77100;SHT31;66602;48.922;2.414;2023-06-04T08:29:43;34.83;22.55
77100;SHT31;66602;48.922;2.414;2023-06-04T08:32:08;34.69;23.61
77100;SHT31;66602;48.922;2.414;2023-06-04T08:34:34;34.62;23.62
77100;SHT31;66602;48.922;2.414;2023-06-04T08:36:59;35.02;23.86
77100;SHT31;66602;48.922;2.414;2023-06-04T08:39:25;35.06;23.73
77100;SHT31;66602;48.922;2.414;2023-06-04T08:42:00;35.10;24.00
77100;SHT31;66602;48.922;2.414;2023-06-04T08:44:30;35.34;23.39
77100;SHT31;66602;48.922;2.414;2023-06-04T08:47:05;35.92;23.53
77100;SHT31;66602;48.922;2.414;2023-06-04T08:49:35;35.88;21.26
77100;SHT31;66602;48.922;2.414;2023-06-04T08:52:04;35.33;22.04
77100;SHT31;66602;48.922;2.414;2023-06-04T08:54:32;35.32;22.27
77100;SHT31;66602;48.922;2.414;2023-06-04T08:56:58;34.83;24.76
77100;SHT31;66602;48.922;2.414;2023-06-04T08:59:23;34.65;24.13
77100;SHT31;66602;48.922;2.414;2023-06-04T09:01:53;35.65;21.48
77100;SHT31;66602;48.922;2.414;2023-06-04T09:04:19;35.44;21.94
77100;SHT31;66602;48.922;2.414;2023-06-04T09:06:44;35.55;21.85
77100;SHT31;66602;48.922;2.414;2023-06-04T09:09:12;35.87;21.50
77100;SHT31;66602;48.922;2.414;2023-06-04T09:11:51;36.59;21.69
77100;SHT31;66602;48.922;2.414;2023-06-04T09:14:18;36.89;19.74
77100;SHT31;66602;48.922;2.414;2023-06-04T09:16:47;36.80;21.88
77100;SHT31;66602;48.922;2.414;2023-06-04T09:19:14;36.83;19.37
77100;SHT31;66602;48.922;2.414;2023-06-04T09:21:59;36.52;19.09
77100;SHT31;66602;48.922;2.414;2023-06-04T09:24:39;36.45;18.65
77100;SHT31;66602;48.922;2.414;2023-06-04T09:27:15;36.12;19.39
77100;SHT31;66602;48.922;2.414;2023-06-04T09:29:52;35.71;20.20
77100;SHT31;66602;48.922;2.414;2023-06-04T09:32:29;35.84;19.29
77100;SHT31;66602;48.922;2.414;2023-06-04T09:35:07;35.84;20.51
77100;SHT31;66602;48.922;2.414;2023-06-04T09:37:34;35.85;19.00
77100;SHT31;66602;48.922;2.414;2023-06-04T09:40:00;35.80;19.48
77100;SHT31;66602;48.922;2.414;2023-06-04T09:42:26;35.91;19.07
77100;SHT31;66602;48.922;2.414;2023-06-04T09:44:51;35.74;19.79
77100;SHT31;66602;48.922;2.414;2023-06-04T09:47:17;35.82;21.95
77100;SHT31;66602;48.922;2.414;2023-06-04T09:49:47;36.29;19.30
77100;SHT31;66602;48.922;2.414;2023-06-04T09:52:14;36.84;17.72
77100;SHT31;66602;48.922;2.414;2023-06-04T09:54:41;36.75;18.05
77100;SHT31;66602;48.922;2.414;2023-06-04T09:57:16;36.21;18.48
77100;SHT31;66602;48.922;2.414;2023-06-04T09:59:52;36.40;19.98
77100;SHT31;66602;48.922;2.414;2023-06-04T10:02:20;36.69;19.28
77100;SHT31;66602;48.922;2.414;2023-06-04T10:04:53;36.76;18.73
77100;SHT31;66602;48.922;2.414;2023-06-04T10:07:24;36.80;19.07
77100;SHT31;66602;48.922;2.414;2023-06-04T10:09:50;36.94;19.07
77100;SHT31;66602;48.922;2.414;2023-06-04T10:12:22;36.62;19.64
77100;SHT31;66602;48.922;2.414;2023-06-04T10:14:58;37.04;19.18
77100;SHT31;66602;48.922;2.414;2023-06-04T10:17:27;36.79;19.86
77100;SHT31;66602;48.922;2.414;2023-06-04T10:19:54;37.21;19.48
77100;SHT31;66602;48.922;2.414;2023-06-04T10:22:21;36.86;18.49
77100;SHT31;66602;48.922;2.414;2023-06-04T10:24:47;36.70;19.54
77100;SHT31;66602;48.922;2.414;2023-06-04T10:27:12;36.91;19.07
77100;SHT31;66602;48.922;2.414;2023-06-04T10:29:39;36.75;19.95
77100;SHT31;66602;48.922;2.414;2023-06-04T10:32:06;35.81;18.95
77100;SHT31;66602;48.922;2.414;2023-06-04T10:34:31;35.80;19.14
77100;SHT31;66602;48.922;2.414;2023-06-04T10:36:57;36.04;18.20
77100;SHT31;66602;48.922;2.414;2023-06-04T10:39:30;35.98;20.11
77100;SHT31;66602;48.922;2.414;2023-06-04T10:42:03;36.42;19.52
77100;SHT31;66602;48.922;2.414;2023-06-04T10:44:46;36.69;17.44
77100;SHT31;66602;48.922;2.414;2023-06-04T10:47:22;36.76;18.20
77100;SHT31;66602;48.922;2.414;2023-06-04T10:49:50;37.49;18.37
77100;SHT31;66602;48.922;2.414;2023-06-04T10:52:16;37.27;16.76
77100;SHT31;66602;48.922;2.414;2023-06-04T10:54:42;36.96;17.38
77100;SHT31;66602;48.922;2.414;2023-06-04T10:57:12;36.94;16.56
77100;SHT31;66602;48.922;2.414;2023-06-04T10:59:38;36.96;17.41
77100;SHT31;66602;48.922;2.414;2023-06-04T11:02:05;37.03;19.01
77100;SHT31;66602;48.922;2.414;2023-06-04T11:04:31;37.47;18.54
77100;SHT31;66602;48.922;2.414;2023-06-04T11:09:27;36.75;17.71
77100;SHT31;66602;48.922;2.414;2023-06-04T11:11:59;36.80;17.42
77100;SHT31;66602;48.922;2.414;2023-06-04T11:14:25;36.45;18.03
77100;SHT31;66602;48.922;2.414;2023-06-04T11:16:51;36.21;19.40
77100;SHT31;66602;48.922;2.414;2023-06-04T11:19:17;36.50;19.07
77100;SHT31;66602;48.922;2.414;2023-06-04T11:21:43;36.68;19.27
77100;SHT31;66602;48.922;2.414;2023-06-04T11:24:09;36.83;17.20
77100;SHT31;66602;48.922;2.414;2023-06-04T11:26:35;36.53;17.25
77100;SHT31;66602;48.922;2.414;2023-06-04T11:29:06;36.49;17.63
77100;SHT31;66602;48.922;2.414;2023-06-04T11:31:45;36.38;19.39
77100;SHT31;66602;48.922;2.414;2023-06-04T11:34:11;36.75;19.34
77100;SHT31;66602;48.922;2.414;2023-06-04T11:36:46;36.66;17.74
77100;SHT31;66602;48.922;2.414;2023-06-04T11:39:15;36.55;20.14
77100;SHT31;66602;48.922;2.414;2023-06-04T11:41:41;36.68;18.38
77100;SHT31;66602;48.922;2.414;2023-06-04T11:44:08;36.09;19.27
77100;SHT31;66602;48.922;2.414;2023-06-04T11:46:35;36.25;18.28
77100;SHT31;66602;48.922;2.414;2023-06-04T11:49:02;35.70;19.10
77100;SHT31;66602;48.922;2.414;2023-06-04T11:51:28;35.95;19.08
77100;SHT31;66602;48.922;2.414;2023-06-04T11:53:54;35.97;18.79
77100;SHT31;66602;48.922;2.414;2023-06-04T11:56:21;36.09;20.25
77100;SHT31;66602;48.922;2.414;2023-06-04T11:58:46;36.05;21.66
77100;SHT31;66602;48.922;2.414;2023-06-04T12:01:13;36.62;19.72
77100;SHT31;66602;48.922;2.414;2023-06-04T12:03:40;36.91;19.04
77100;SHT31;66602;48.922;2.414;2023-06-04T12:08:48;36.39;19.59
77100;SHT31;66602;48.922;2.414;2023-06-04T12:13:59;36.38;19.93
77100;SHT31;66602;48.922;2.414;2023-06-04T12:16:26;36.76;21.88
77100;SHT31;66602;48.922;2.414;2023-06-04T12:19:10;37.17;18.80
77100;SHT31;66602;48.922;2.414;2023-06-04T12:21:37;36.35;20.18
77100;SHT31;66602;48.922;2.414;2023-06-04T12:24:11;35.97;19.18
77100;SHT31;66602;48.922;2.414;2023-06-04T12:26:37;35.58;18.92
77100;SHT31;66602;48.922;2.414;2023-06-04T12:29:13;35.13;20.56
77100;SHT31;66602;48.922;2.414;2023-06-04T12:31:41;35.30;21.46
77100;SHT31;66602;48.922;2.414;2023-06-04T12:34:07;35.77;20.55
77100;SHT31;66602;48.922;2.414;2023-06-04T12:36:33;35.78;19.37
77100;SHT31;66602;48.922;2.414;2023-06-04T12:39:01;35.70;21.55
77100;SHT31;66602;48.922;2.414;2023-06-04T12:41:27;36.11;20.59
77100;SHT31;66602;48.922;2.414;2023-06-04T12:43:53;35.63;19.01
77100;SHT31;66602;48.922;2.414;2023-06-04T12:46:19;35.07;20.37
77100;SHT31;66602;48.922;2.414;2023-06-04T12:48:45;35.04;22.06
77100;SHT31;66602;48.922;2.414;2023-06-04T12:51:11;34.93;21.59
77100;SHT31;66602;48.922;2.414;2023-06-04T12:53:41;34.75;23.05
77100;SHT31;66602;48.922;2.414;2023-06-04T12:56:07;34.68;22.61
77100;SHT31;66602;48.922;2.414;2023-06-04T12:58:33;34.68;20.73
77100;SHT31;66602;48.922;2.414;2023-06-04T13:00:59;34.44;21.41
77100;SHT31;66602;48.922;2.414;2023-06-04T13:03:29;34.18;21.61
77100;SHT31;66602;48.922;2.414;2023-06-04T13:05:55;34.38;21.65
77100;SHT31;66602;48.922;2.414;2023-06-04T13:08:20;34.18;21.25
77100;SHT31;66602;48.922;2.414;2023-06-04T13:10:47;34.33;21.24
77100;SHT31;66602;48.922;2.414;2023-06-04T13:13:13;34.64;21.27
77100;SHT31;66602;48.922;2.414;2023-06-04T13:15:41;34.48;20.96
77100;SHT31;66602;48.922;2.414;2023-06-04T13:18:07;34.54;21.88
77100;SHT31;66602;48.922;2.414;2023-06-04T13:20:32;34.95;22.13
77100;SHT31;66602;48.922;2.414;2023-06-04T13:22:58;34.68;19.89
77100;SHT31;66602;48.922;2.414;2023-06-04T13:25:23;34.48;20.86
77100;SHT31;66602;48.922;2.414;2023-06-04T13:27:49;34.48;22.01
77100;SHT31;66602;48.922;2.414;2023-06-04T13:30:15;34.71;20.84
77100;SHT31;66602;48.922;2.414;2023-06-04T13:32:40;34.58;20.66
77100;SHT31;66602;48.922;2.414;2023-06-04T13:35:06;34.49;20.22
77100;SHT31;66602;48.922;2.414;2023-06-04T13:37:32;34.41;20.20
77100;SHT31;66602;48.922;2.414;2023-06-04T13:39:58;34.29;23.57
77100;SHT31;66602;48.922;2.414;2023-06-04T13:42:23;34.25;20.93
77100;SHT31;66602;48.922;2.414;2023-06-04T13:44:49;34.35;20.67
77100;SHT31;66602;48.922;2.414;2023-06-04T13:47:15;34.23;21.15
77100;SHT31;66602;48.922;2.414;2023-06-04T13:49:42;33.98;20.83
77100;SHT31;66602;48.922;2.414;2023-06-04T13:52:08;34.13;20.74
77100;SHT31;66602;48.922;2.414;2023-06-04T13:54:33;34.52;22.11
77100;SHT31;66602;48.922;2.414;2023-06-04T13:57:02;34.52;19.19
77100;SHT31;66602;48.922;2.414;2023-06-04T13:59:28;34.49;19.55
77100;SHT31;66602;48.922;2.414;2023-06-04T14:01:55;34.17;19.83
77100;SHT31;66602;48.922;2.414;2023-06-04T14:04:20;34.27;19.60
77100;SHT31;66602;48.922;2.414;2023-06-04T14:06:46;34.45;20.39
77100;SHT31;66602;48.922;2.414;2023-06-04T14:09:12;34.34;20.57
77100;SHT31;66602;48.922;2.414;2023-06-04T14:11:39;34.45;19.61
77100;SHT31;66602;48.922;2.414;2023-06-04T14:14:05;34.48;19.73
77100;SHT31;66602;48.922;2.414;2023-06-04T14:16:31;34.24;20.17
77100;SHT31;66602;48.922;2.414;2023-06-04T14:18:56;34.07;20.37
77100;SHT31;66602;48.922;2.414;2023-06-04T14:21:22;34.37;20.32
77100;SHT31;66602;48.922;2.414;2023-06-04T14:23:47;34.25;20.12
77100;SHT31;66602;48.922;2.414;2023-06-04T14:26:14;34.15;20.54
77100;SHT31;66602;48.922;2.414;2023-06-04T14:28:42;33.83;19.71
77100;SHT31;66602;48.922;2.414;2023-06-04T14:31:07;33.43;19.59
77100;SHT31;66602;48.922;2.414;2023-06-04T14:33:33;33.56;21.57
77100;SHT31;66602;48.922;2.414;2023-06-04T14:36:00;33.69;20.15
77100;SHT31;66602;48.922;2.414;2023-06-04T14:38:26;34.05;20.69
77100;SHT31;66602;48.922;2.414;2023-06-04T14:40:52;34.04;19.02
77100;SHT31;66602;48.922;2.414;2023-06-04T14:43:20;34.08;20.50
77100;SHT31;66602;48.922;2.414;2023-06-04T14:45:46;34.05;20.06
77100;SHT31;66602;48.922;2.414;2023-06-04T14:48:11;33.78;19.15
77100;SHT31;66602;48.922;2.414;2023-06-04T14:50:37;33.53;19.83
77100;SHT31;66602;48.922;2.414;2023-06-04T14:53:02;33.36;20.48
77100;SHT31;66602;48.922;2.414;2023-06-04T14:55:32;33.04;19.59
77100;SHT31;66602;48.922;2.414;2023-06-04T14:57:58;32.89;20.54
77100;SHT31;66602;48.922;2.414;2023-06-04T15:00:23;32.74;20.87
77100;SHT31;66602;48.922;2.414;2023-06-04T15:02:49;32.63;20.98
77100;SHT31;66602;48.922;2.414;2023-06-04T15:05:14;32.44;21.03
77100;SHT31;66602;48.922;2.414;2023-06-04T15:07:40;32.40;21.49
77100;SHT31;66602;48.922;2.414;2023-06-04T15:10:06;32.44;20.99
77100;SHT31;66602;48.922;2.414;2023-06-04T15:12:32;32.24;21.01
77100;SHT31;66602;48.922;2.414;2023-06-04T15:15:08;32.33;21.80
77100;SHT31;66602;48.922;2.414;2023-06-04T15:17:35;32.16;22.92
77100;SHT31;66602;48.922;2.414;2023-06-04T15:20:01;32.26;23.59
77100;SHT31;66602;48.922;2.414;2023-06-04T15:22:28;32.17;21.93
77100;SHT31;66602;48.922;2.414;2023-06-04T15:24:53;32.09;22.89
77100;SHT31;66602;48.922;2.414;2023-06-04T15:27:19;32.16;22.76
77100;SHT31;66602;48.922;2.414;2023-06-04T15:29:44;32.23;23.05
77100;SHT31;66602;48.922;2.414;2023-06-04T15:32:10;32.17;22.81
77100;SHT31;66602;48.922;2.414;2023-06-04T15:34:36;32.34;22.09
77100;SHT31;66602;48.922;2.414;2023-06-04T15:37:01;32.02;23.38
77100;SHT31;66602;48.922;2.414;2023-06-04T15:39:27;31.83;22.71
77100;SHT31;66602;48.922;2.414;2023-06-04T15:41:53;31.72;22.72
77100;SHT31;66602;48.922;2.414;2023-06-04T15:44:18;31.53;23.20
77100;SHT31;66602;48.922;2.414;2023-06-04T15:46:44;31.45;23.78
77100;SHT31;66602;48.922;2.414;2023-06-04T15:49:09;31.37;23.03
77100;SHT31;66602;48.922;2.414;2023-06-04T15:51:35;31.39;24.47
77100;SHT31;66602;48.922;2.414;2023-06-04T15:54:02;31.51;24.19
77100;SHT31;66602;48.922;2.414;2023-06-04T15:56:28;31.73;22.92
77100;SHT31;66602;48.922;2.414;2023-06-04T15:58:54;31.59;23.62
77100;SHT31;66602;48.922;2.414;2023-06-04T16:01:20;31.63;23.67
77100;SHT31;66602;48.922;2.414;2023-06-04T16:03:45;31.35;22.95
77100;SHT31;66602;48.922;2.414;2023-06-04T16:06:11;31.42;24.41
77100;SHT31;66602;48.922;2.414;2023-06-04T16:08:37;31.25;23.57
77100;SHT31;66602;48.922;2.414;2023-06-04T16:11:03;30.97;24.19
77100;SHT31;66602;48.922;2.414;2023-06-04T16:13:29;30.95;24.41
77100;SHT31;66602;48.922;2.414;2023-06-04T16:15:55;30.81;23.83
77100;SHT31;66602;48.922;2.414;2023-06-04T16:18:21;30.50;24.26
77100;SHT31;66602;48.922;2.414;2023-06-04T16:20:47;30.39;26.29
77100;SHT31;66602;48.922;2.414;2023-06-04T16:23:13;30.47;24.77
77100;SHT31;66602;48.922;2.414;2023-06-04T16:25:38;30.56;25.99
77100;SHT31;66602;48.922;2.414;2023-06-04T16:28:04;30.67;25.47
77100;SHT31;66602;48.922;2.414;2023-06-04T16:30:30;30.56;25.23
77100;SHT31;66602;48.922;2.414;2023-06-04T16:32:56;30.50;27.36
77100;SHT31;66602;48.922;2.414;2023-06-04T16:35:22;30.50;25.89
77100;SHT31;66602;48.922;2.414;2023-06-04T16:37:48;30.29;25.99
77100;SHT31;66602;48.922;2.414;2023-06-04T16:40:14;30.11;28.89
77100;SHT31;66602;48.922;2.414;2023-06-04T16:42:39;29.98;25.42
77100;SHT31;66602;48.922;2.414;2023-06-04T16:45:05;29.85;28.51
77100;SHT31;66602;48.922;2.414;2023-06-04T16:47:33;29.68;27.24
77100;SHT31;66602;48.922;2.414;2023-06-04T16:50:00;29.46;27.39
77100;SHT31;66602;48.922;2.414;2023-06-04T16:52:25;29.27;26.53
77100;SHT31;66602;48.922;2.414;2023-06-04T16:54:51;29.30;29.10
77100;SHT31;66602;48.922;2.414;2023-06-04T16:57:17;29.23;26.23
77100;SHT31;66602;48.922;2.414;2023-06-04T16:59:46;28.99;27.05
77100;SHT31;66602;48.922;2.414;2023-06-04T17:02:12;28.89;26.67
77100;SHT31;66602;48.922;2.414;2023-06-04T17:04:38;28.80;27.57
77100;SHT31;66602;48.922;2.414;2023-06-04T17:07:04;28.79;27.04
77100;SHT31;66602;48.922;2.414;2023-06-04T17:09:29;28.62;27.49
77100;SHT31;66602;48.922;2.414;2023-06-04T17:11:55;28.56;27.25
77100;SHT31;66602;48.922;2.414;2023-06-04T17:14:20;28.44;28.27
77100;SHT31;66602;48.922;2.414;2023-06-04T17:16:46;28.22;27.57
77100;SHT31;66602;48.922;2.414;2023-06-04T17:19:12;28.01;30.54
77100;SHT31;66602;48.922;2.414;2023-06-04T17:21:37;27.84;28.83
77100;SHT31;66602;48.922;2.414;2023-06-04T17:24:03;27.60;28.16
77100;SHT31;66602;48.922;2.414;2023-06-04T17:26:29;27.52;31.90
77100;SHT31;66602;48.922;2.414;2023-06-04T17:28:54;27.52;29.98
77100;SHT31;66602;48.922;2.414;2023-06-04T17:31:20;27.28;28.82
77100;SHT31;66602;48.922;2.414;2023-06-04T17:33:49;27.05;30.56
77100;SHT31;66602;48.922;2.414;2023-06-04T17:36:14;26.91;29.73
77100;SHT31;66602;48.922;2.414;2023-06-04T17:38:40;26.80;30.61
77100;SHT31;66602;48.922;2.414;2023-06-04T17:41:07;26.60;29.77
77100;SHT31;66602;48.922;2.414;2023-06-04T17:43:32;26.48;29.87
77100;SHT31;66602;48.922;2.414;2023-06-04T17:45:58;26.41;31.05
77100;SHT31;66602;48.922;2.414;2023-06-04T17:48:24;26.19;30.09
77100;SHT31;66602;48.922;2.414;2023-06-04T17:50:50;25.95;30.36
77100;SHT31;66602;48.922;2.414;2023-06-04T17:53:15;25.65;31.19
77100;SHT31;66602;48.922;2.414;2023-06-04T17:55:42;25.28;32.30
77100;SHT31;66602;48.922;2.414;2023-06-04T17:58:08;24.94;32.55
77100;SHT31;66602;48.922;2.414;2023-06-04T18:00:33;24.70;33.17
77100;SHT31;66602;48.922;2.414;2023-06-04T18:02:59;24.48;34.04
77100;SHT31;66602;48.922;2.414;2023-06-04T18:05:24;24.26;34.58
77100;SHT31;66602;48.922;2.414;2023-06-04T18:07:50;24.14;34.57
77100;SHT31;66602;48.922;2.414;2023-06-04T18:10:15;23.98;34.19
77100;SHT31;66602;48.922;2.414;2023-06-04T18:12:44;23.82;34.23
77100;SHT31;66602;48.922;2.414;2023-06-04T18:15:11;23.69;34.66
77100;SHT31;66602;48.922;2.414;2023-06-04T18:17:39;23.53;35.02
77100;SHT31;66602;48.922;2.414;2023-06-04T18:20:05;23.45;34.51
77100;SHT31;66602;48.922;2.414;2023-06-04T18:22:31;23.32;35.15
77100;SHT31;66602;48.922;2.414;2023-06-04T18:24:57;23.23;34.88
77100;SHT31;66602;48.922;2.414;2023-06-04T18:27:22;23.11;35.06
77100;SHT31;66602;48.922;2.414;2023-06-04T18:29:48;23.05;35.15
77100;SHT31;66602;48.922;2.414;2023-06-04T18:32:15;22.95;35.94
77100;SHT31;66602;48.922;2.414;2023-06-04T18:34:41;22.88;35.81
77100;SHT31;66602;48.922;2.414;2023-06-04T18:37:06;22.72;36.23
77100;SHT31;66602;48.922;2.414;2023-06-04T18:39:32;22.65;36.63
77100;SHT31;66602;48.922;2.414;2023-06-04T18:42:00;22.60;36.26
77100;SHT31;66602;48.922;2.414;2023-06-04T18:44:26;22.47;37.18
77100;SHT31;66602;48.922;2.414;2023-06-04T18:46:51;22.34;37.30
77100;SHT31;66602;48.922;2.414;2023-06-04T18:49:18;22.30;37.33
77100;SHT31;66602;48.922;2.414;2023-06-04T18:51:49;22.17;37.36
77100;SHT31;66602;48.922;2.414;2023-06-04T18:54:16;22.10;37.96
77100;SHT31;66602;48.922;2.414;2023-06-04T18:56:42;22.03;38.54
77100;SHT31;66602;48.922;2.414;2023-06-04T18:59:11;21.88;38.37
77100;SHT31;66602;48.922;2.414;2023-06-04T19:01:37;21.71;40.04
77100;SHT31;66602;48.922;2.414;2023-06-04T19:04:03;21.65;38.52
77100;SHT31;66602;48.922;2.414;2023-06-04T19:06:28;21.72;38.49
77100;SHT31;66602;48.922;2.414;2023-06-04T19:08:55;21.71;38.52
77100;SHT31;66602;48.922;2.414;2023-06-04T19:11:21;21.62;39.09
77100;SHT31;66602;48.922;2.414;2023-06-04T19:13:47;21.58;38.79
77100;SHT31;66602;48.922;2.414;2023-06-04T19:16:13;21.52;39.43
77100;SHT31;66602;48.922;2.414;2023-06-04T19:18:38;21.45;38.96
77100;SHT31;66602;48.922;2.414;2023-06-04T19:21:04;21.35;38.96
77100;SHT31;66602;48.922;2.414;2023-06-04T19:23:29;21.23;39.65
77100;SHT31;66602;48.922;2.414;2023-06-04T19:25:55;21.05;39.89
77100;SHT31;66602;48.922;2.414;2023-06-04T19:28:21;20.95;40.79
77100;SHT31;66602;48.922;2.414;2023-06-04T19:30:46;20.87;40.26
77100;SHT31;66602;48.922;2.414;2023-06-04T19:33:12;20.80;40.43
77100;SHT31;66602;48.922;2.414;2023-06-04T19:35:38;20.69;40.69
77100;SHT31;66602;48.922;2.414;2023-06-04T19:38:04;20.60;40.16
77100;SHT31;66602;48.922;2.414;2023-06-04T19:40:30;20.52;40.46
77100;SHT31;66602;48.922;2.414;2023-06-04T19:42:55;20.47;40.48
77100;SHT31;66602;48.922;2.414;2023-06-04T19:45:23;20.36;40.47
77100;SHT31;66602;48.922;2.414;2023-06-04T19:47:48;20.18;40.97
77100;SHT31;66602;48.922;2.414;2023-06-04T19:50:14;20.09;41.10
77100;SHT31;66602;48.922;2.414;2023-06-04T19:52:40;19.95;41.10
77100;SHT31;66602;48.922;2.414;2023-06-04T19:55:06;19.82;41.25
77100;SHT31;66602;48.922;2.414;2023-06-04T19:57:38;19.71;42.64
77100;SHT31;66602;48.922;2.414;2023-06-04T20:00:04;19.71;41.69
77100;SHT31;66602;48.922;2.414;2023-06-04T20:02:30;19.58;42.57
77100;SHT31;66602;48.922;2.414;2023-06-04T20:04:56;19.43;42.84
77100;SHT31;66602;48.922;2.414;2023-06-04T20:07:21;19.26;43.51
77100;SHT31;66602;48.922;2.414;2023-06-04T20:09:49;19.15;43.39
77100;SHT31;66602;48.922;2.414;2023-06-04T20:12:15;19.10;43.66
77100;SHT31;66602;48.922;2.414;2023-06-04T20:14:41;18.94;44.11
77100;SHT31;66602;48.922;2.414;2023-06-04T20:17:07;18.84;44.15
77100;SHT31;66602;48.922;2.414;2023-06-04T20:19:33;18.78;44.36
77100;SHT31;66602;48.922;2.414;2023-06-04T20:21:58;18.69;44.92
77100;SHT31;66602;48.922;2.414;2023-06-04T20:24:23;18.71;44.74
77100;SHT31;66602;48.922;2.414;2023-06-04T20:26:49;18.66;45.03
77100;SHT31;66602;48.922;2.414;2023-06-04T20:29:16;18.59;45.02
77100;SHT31;66602;48.922;2.414;2023-06-04T20:31:42;18.45;45.10
77100;SHT31;66602;48.922;2.414;2023-06-04T20:34:07;18.33;45.36
77100;SHT31;66602;48.922;2.414;2023-06-04T20:36:33;18.30;45.36
77100;SHT31;66602;48.922;2.414;2023-06-04T20:39:01;18.31;45.44
77100;SHT31;66602;48.922;2.414;2023-06-04T20:41:26;18.27;45.65
77100;SHT31;66602;48.922;2.414;2023-06-04T20:43:53;18.23;45.97
77100;SHT31;66602;48.922;2.414;2023-06-04T20:46:22;18.13;45.98
77100;SHT31;66602;48.922;2.414;2023-06-04T20:48:49;18.06;46.07
77100;SHT31;66602;48.922;2.414;2023-06-04T20:51:15;18.07;46.30
77100;SHT31;66602;48.922;2.414;2023-06-04T20:53:45;17.98;45.90
77100;SHT31;66602;48.922;2.414;2023-06-04T20:56:11;18.00;45.77
77100;SHT31;66602;48.922;2.414;2023-06-04T20:58:36;17.91;46.34
77100;SHT31;66602;48.922;2.414;2023-06-04T21:01:02;17.94;45.88
77100;SHT31;66602;48.922;2.414;2023-06-04T21:03:27;17.89;46.26
77100;SHT31;66602;48.922;2.414;2023-06-04T21:05:54;17.87;45.99
77100;SHT31;66602;48.922;2.414;2023-06-04T21:08:23;17.83;46.09
77100;SHT31;66602;48.922;2.414;2023-06-04T21:10:52;17.77;46.34
77100;SHT31;66602;48.922;2.414;2023-06-04T21:13:18;17.69;46.43
77100;SHT31;66602;48.922;2.414;2023-06-04T21:15:44;17.72;46.75
77100;SHT31;66602;48.922;2.414;2023-06-04T21:18:09;17.70;46.35
77100;SHT31;66602;48.922;2.414;2023-06-04T21:20:35;17.69;46.38
77100;SHT31;66602;48.922;2.414;2023-06-04T21:23:00;17.69;47.06
77100;SHT31;66602;48.922;2.414;2023-06-04T21:25:26;17.58;46.72
77100;SHT31;66602;48.922;2.414;2023-06-04T21:27:51;17.58;46.89
77100;SHT31;66602;48.922;2.414;2023-06-04T21:30:17;17.55;46.36
77100;SHT31;66602;48.922;2.414;2023-06-04T21:32:43;17.52;46.56
77100;SHT31;66602;48.922;2.414;2023-06-04T21:35:13;17.46;46.69
77100;SHT31;66602;48.922;2.414;2023-06-04T21:37:39;17.43;46.79
77100;SHT31;66602;48.922;2.414;2023-06-04T21:40:05;17.32;47.30
77100;SHT31;66602;48.922;2.414;2023-06-04T21:42:31;17.35;45.95
77100;SHT31;66602;48.922;2.414;2023-06-04T21:44:56;17.34;46.52
77100;SHT31;66602;48.922;2.414;2023-06-04T21:47:22;17.28;46.62
77100;SHT31;66602;48.922;2.414;2023-06-04T21:49:48;17.32;45.88
77100;SHT31;66602;48.922;2.414;2023-06-04T21:52:13;17.46;45.92
77100;SHT31;66602;48.922;2.414;2023-06-04T21:54:39;17.53;46.14
77100;SHT31;66602;48.922;2.414;2023-06-04T21:57:04;17.55;45.86
77100;SHT31;66602;48.922;2.414;2023-06-04T21:59:31;17.52;46.80
77100;SHT31;66602;48.922;2.414;2023-06-04T22:01:56;17.43;46.97
77100;SHT31;66602;48.922;2.414;2023-06-04T22:04:23;17.36;47.13
77100;SHT31;66602;48.922;2.414;2023-06-04T22:06:49;17.29;47.46
77100;SHT31;66602;48.922;2.414;2023-06-04T22:09:15;17.27;47.98
77100;SHT31;66602;48.922;2.414;2023-06-04T22:11:41;17.07;49.01
77100;SHT31;66602;48.922;2.414;2023-06-04T22:14:06;16.94;49.30
77100;SHT31;66602;48.922;2.414;2023-06-04T22:16:32;16.90;50.02
77100;SHT31;66602;48.922;2.414;2023-06-04T22:18:57;16.95;50.55
77100;SHT31;66602;48.922;2.414;2023-06-04T22:21:23;17.01;50.85
77100;SHT31;66602;48.922;2.414;2023-06-04T22:23:48;17.00;52.69
77100;SHT31;66602;48.922;2.414;2023-06-04T22:26:14;16.91;52.50
77100;SHT31;66602;48.922;2.414;2023-06-04T22:28:40;16.98;52.87
77100;SHT31;66602;48.922;2.414;2023-06-04T22:31:05;16.97;53.76
77100;SHT31;66602;48.922;2.414;2023-06-04T22:33:31;16.94;53.95
77100;SHT31;66602;48.922;2.414;2023-06-04T22:35:56;16.90;54.47
77100;SHT31;66602;48.922;2.414;2023-06-04T22:38:22;16.92;55.28
77100;SHT31;66602;48.922;2.414;2023-06-04T22:40:49;16.83;56.08
77100;SHT31;66602;48.922;2.414;2023-06-04T22:43:14;16.77;56.86
77100;SHT31;66602;48.922;2.414;2023-06-04T22:45:40;16.77;57.43
77100;SHT31;66602;48.922;2.414;2023-06-04T22:48:06;16.73;58.09
77100;SHT31;66602;48.922;2.414;2023-06-04T22:50:32;16.67;58.68
77100;SHT31;66602;48.922;2.414;2023-06-04T22:52:58;16.63;59.74
77100;SHT31;66602;48.922;2.414;2023-06-04T22:55:23;16.61;59.85
77100;SHT31;66602;48.922;2.414;2023-06-04T22:57:49;16.56;60.24
77100;SHT31;66602;48.922;2.414;2023-06-04T23:00:14;16.47;61.16
77100;SHT31;66602;48.922;2.414;2023-06-04T23:02:40;16.39;61.41
77100;SHT31;66602;48.922;2.414;2023-06-04T23:05:06;16.38;61.87
77100;SHT31;66602;48.922;2.414;2023-06-04T23:07:32;16.28;62.46
77100;SHT31;66602;48.922;2.414;2023-06-04T23:09:57;16.32;62.94
77100;SHT31;66602;48.922;2.414;2023-06-04T23:12:23;16.26;63.00
77100;SHT31;66602;48.922;2.414;2023-06-04T23:14:48;16.25;63.08
77100;SHT31;66602;48.922;2.414;2023-06-04T23:17:14;16.15;63.74
77100;SHT31;66602;48.922;2.414;2023-06-04T23:19:40;16.10;63.93
77100;SHT31;66602;48.922;2.414;2023-06-04T23:22:05;16.05;64.31
77100;SHT31;66602;48.922;2.414;2023-06-04T23:24:31;16.05;64.64
77100;SHT31;66602;48.922;2.414;2023-06-04T23:26:58;16.06;64.84
77100;SHT31;66602;48.922;2.414;2023-06-04T23:29:24;15.97;64.87
77100;SHT31;66602;48.922;2.414;2023-06-04T23:31:49;15.89;65.17
77100;SHT31;66602;48.922;2.414;2023-06-04T23:34:15;15.94;65.22
77100;SHT31;66602;48.922;2.414;2023-06-04T23:36:41;15.92;65.57